Gis-linda — WDF6980 — position and weather

sailwx.info

Track history (hours):
 
Tides and Currents Weather Stations Pressure Air Temp Water Temp Dewpoint Dewpoint Depression Visibility Wind Speed Wind Dir Waves Ship Positions

Gis-linda

Owner: GIS Marine LLC, Galliano, LA. More information available from US FCC via Universal Licensing System and Coast Guard Vessel Documentation Center.

Last reported at 2018-Feb-16 00:46 UTC. Time now 2018-Feb-24 06:16 UTC.
Position N 29°36' W 092°18'.
Warning: this ship's position is 8 days out of date.

Type: Cargo ship. MMSI: 367479870.

Date/timePositionNaut miles runAvg speedWind from/ knotsBaromVisibWave heightAir tempDewpointWater temp
2018-Feb-16 00:46N 29°36' W 092°18'2 5.1
2018-Feb-16 00:26N 29°37' W 092°17'3 6.1
2018-Feb-16 00:00N 29°40' W 092°16'3 6.8
2018-Feb-15 23:30N 29°43' W 092°15'3 6.0
2018-Feb-15 23:00N 29°45' W 092°12'2 4.0
2018-Feb-15 22:30N 29°47' W 092°11'0 0.1
2018-Feb-15 22:00N 29°47' W 092°11'0 0.0
2018-Feb-15 21:30N 29°47' W 092°11'0 0.0
2018-Feb-15 21:00N 29°47' W 092°11'0 0.0
2018-Feb-15 20:30N 29°47' W 092°11'0 0.0
2018-Feb-15 20:00N 29°47' W 092°11'0 0.0
2018-Feb-15 19:30N 29°47' W 092°11'0 0.0
2018-Feb-15 19:00N 29°47' W 092°11'0 0.0
2018-Feb-15 18:30N 29°47' W 092°11'0 0.0
2018-Feb-15 18:00N 29°47' W 092°11'0 0.0
2018-Feb-15 17:30N 29°47' W 092°11'0 0.0
2018-Feb-15 17:00N 29°47' W 092°11'0 0.0
2018-Feb-15 16:30N 29°47' W 092°11'0 0.0
2018-Feb-15 16:00N 29°47' W 092°11'0 0.0
2018-Feb-15 15:30N 29°47' W 092°11'0 0.0
2018-Feb-15 15:00N 29°47' W 092°11'0 0.0
2018-Feb-15 14:30N 29°47' W 092°11'0 0.0
2018-Feb-15 14:00N 29°47' W 092°11'0 0.0
2018-Feb-15 13:30N 29°47' W 092°11'0 0.0
2018-Feb-15 13:00N 29°47' W 092°11'0 0.0
2018-Feb-15 12:30N 29°47' W 092°11'0 0.0
2018-Feb-15 12:00N 29°47' W 092°11'0 0.0
2018-Feb-15 11:30N 29°47' W 092°11'0 0.0
2018-Feb-15 11:00N 29°47' W 092°11'0 0.0
2018-Feb-15 10:30N 29°47' W 092°11'0 0.0
2018-Feb-15 10:00N 29°47' W 092°11'0 0.0
2018-Feb-15 09:30N 29°47' W 092°11'0 0.0
2018-Feb-15 09:00N 29°47' W 092°11'0 0.0
2018-Feb-15 08:30N 29°47' W 092°11'0 0.0
2018-Feb-15 08:00N 29°47' W 092°11'0 0.0
2018-Feb-15 07:30N 29°47' W 092°11'0 0.0
2018-Feb-15 07:00N 29°47' W 092°11'0 0.0
2018-Feb-15 06:30N 29°47' W 092°11'0 0.0
2018-Feb-15 06:00N 29°47' W 092°11'0 0.0
2018-Feb-15 05:30N 29°47' W 092°11'0 0.0
2018-Feb-15 05:00N 29°47' W 092°11'0 0.0
2018-Feb-15 04:30N 29°47' W 092°11'0 0.0
2018-Feb-15 04:00N 29°47' W 092°11'0 0.0
2018-Feb-15 03:30N 29°47' W 092°11'0 0.0
2018-Feb-15 03:00N 29°47' W 092°11'0 0.1
2018-Feb-15 02:28N 29°47' W 092°11'0 0.0
2018-Feb-15 02:00N 29°47' W 092°11'0 0.0
2018-Feb-15 01:30N 29°47' W 092°11'0 0.0
2018-Feb-15 01:00N 29°47' W 092°11'0 0.1
2018-Feb-15 00:30N 29°47' W 092°11'0 0.0
2018-Feb-15 00:00N 29°47' W 092°11'1 2.7
2018-Feb-14 23:30N 29°46' W 092°12'3 6.8
2018-Feb-14 23:00N 29°43' W 092°15'4 7.1
2018-Feb-14 22:30N 29°40' W 092°15'  
2018-Feb-10 21:44N 29°37' W 092°17'2 7.0
2018-Feb-10 21:30N 29°38' W 092°16'4 7.3
2018-Feb-10 21:00N 29°42' W 092°15'3 6.7
2018-Feb-10 20:30N 29°45' W 092°13'3 6.4
2018-Feb-10 20:00N 29°47' W 092°10'2 3.5
2018-Feb-10 19:30N 29°48' W 092°09'0 0.0
2018-Feb-10 19:00N 29°48' W 092°09'0 0.0
2018-Feb-10 18:30N 29°48' W 092°09'0 0.0
2018-Feb-10 18:00N 29°48' W 092°09'1 2.8
2018-Feb-10 17:30N 29°47' W 092°10'1 2.2
2018-Feb-10 17:00N 29°47' W 092°09'0 0.9
2018-Feb-10 16:30N 29°48' W 092°09'0 0.2
2018-Feb-10 16:00N 29°48' W 092°09'2 3.9
2018-Feb-10 15:30N 29°46' W 092°10'3 6.1
2018-Feb-10 15:00N 29°45' W 092°13'  
Track history (hours):
 
Tides and Currents Weather Stations Pressure Air Temp Water Temp Dewpoint Dewpoint Depression Visibility Wind Speed Wind Dir Waves Ship Positions

Gis-linda

Owner: GIS Marine LLC, Galliano, LA. More information available from US FCC via Universal Licensing System and Coast Guard Vessel Documentation Center.

Last reported at 2018-Feb-16 00:46 UTC. Time now 2018-Feb-24 06:16 UTC.
Position N 29°36' W 092°18'.
Warning: this ship's position is 8 days out of date.

Type: Cargo ship. MMSI: 367479870.

Date/timePositionNaut miles runAvg speedWind from/ knotsBaromVisibWave heightAir tempDewpointWater temp
2018-Feb-16 00:46N 29°36' W 092°18'2 5.1
2018-Feb-16 00:26N 29°37' W 092°17'3 6.1
2018-Feb-16 00:00N 29°40' W 092°16'3 6.8
2018-Feb-15 23:30N 29°43' W 092°15'3 6.0
2018-Feb-15 23:00N 29°45' W 092°12'2 4.0
2018-Feb-15 22:30N 29°47' W 092°11'0 0.1
2018-Feb-15 22:00N 29°47' W 092°11'0 0.0
2018-Feb-15 21:30N 29°47' W 092°11'0 0.0
2018-Feb-15 21:00N 29°47' W 092°11'0 0.0
2018-Feb-15 20:30N 29°47' W 092°11'0 0.0
2018-Feb-15 20:00N 29°47' W 092°11'0 0.0
2018-Feb-15 19:30N 29°47' W 092°11'0 0.0
2018-Feb-15 19:00N 29°47' W 092°11'0 0.0
2018-Feb-15 18:30N 29°47' W 092°11'0 0.0
2018-Feb-15 18:00N 29°47' W 092°11'0 0.0
2018-Feb-15 17:30N 29°47' W 092°11'0 0.0
2018-Feb-15 17:00N 29°47' W 092°11'0 0.0
2018-Feb-15 16:30N 29°47' W 092°11'0 0.0
2018-Feb-15 16:00N 29°47' W 092°11'0 0.0
2018-Feb-15 15:30N 29°47' W 092°11'0 0.0
2018-Feb-15 15:00N 29°47' W 092°11'0 0.0
2018-Feb-15 14:30N 29°47' W 092°11'0 0.0
2018-Feb-15 14:00N 29°47' W 092°11'0 0.0
2018-Feb-15 13:30N 29°47' W 092°11'0 0.0
2018-Feb-15 13:00N 29°47' W 092°11'0 0.0
2018-Feb-15 12:30N 29°47' W 092°11'0 0.0
2018-Feb-15 12:00N 29°47' W 092°11'0 0.0
2018-Feb-15 11:30N 29°47' W 092°11'0 0.0
2018-Feb-15 11:00N 29°47' W 092°11'0 0.0
2018-Feb-15 10:30N 29°47' W 092°11'0 0.0
2018-Feb-15 10:00N 29°47' W 092°11'0 0.0
2018-Feb-15 09:30N 29°47' W 092°11'0 0.0
2018-Feb-15 09:00N 29°47' W 092°11'0 0.0
2018-Feb-15 08:30N 29°47' W 092°11'0 0.0
2018-Feb-15 08:00N 29°47' W 092°11'0 0.0
2018-Feb-15 07:30N 29°47' W 092°11'0 0.0
2018-Feb-15 07:00N 29°47' W 092°11'0 0.0
2018-Feb-15 06:30N 29°47' W 092°11'0 0.0
2018-Feb-15 06:00N 29°47' W 092°11'0 0.0
2018-Feb-15 05:30N 29°47' W 092°11'0 0.0
2018-Feb-15 05:00N 29°47' W 092°11'0 0.0
2018-Feb-15 04:30N 29°47' W 092°11'0 0.0
2018-Feb-15 04:00N 29°47' W 092°11'0 0.0
2018-Feb-15 03:30N 29°47' W 092°11'0 0.0
2018-Feb-15 03:00N 29°47' W 092°11'0 0.1
2018-Feb-15 02:28N 29°47' W 092°11'0 0.0
2018-Feb-15 02:00N 29°47' W 092°11'0 0.0
2018-Feb-15 01:30N 29°47' W 092°11'0 0.0
2018-Feb-15 01:00N 29°47' W 092°11'0 0.1
2018-Feb-15 00:30N 29°47' W 092°11'0 0.0
2018-Feb-15 00:00N 29°47' W 092°11'1 2.7
2018-Feb-14 23:30N 29°46' W 092°12'3 6.8
2018-Feb-14 23:00N 29°43' W 092°15'4 7.1
2018-Feb-14 22:30N 29°40' W 092°15'  
2018-Feb-10 21:44N 29°37' W 092°17'2 7.0
2018-Feb-10 21:30N 29°38' W 092°16'4 7.3
2018-Feb-10 21:00N 29°42' W 092°15'3 6.7
2018-Feb-10 20:30N 29°45' W 092°13'3 6.4
2018-Feb-10 20:00N 29°47' W 092°10'2 3.5
2018-Feb-10 19:30N 29°48' W 092°09'0 0.0
2018-Feb-10 19:00N 29°48' W 092°09'0 0.0
2018-Feb-10 18:30N 29°48' W 092°09'0 0.0
2018-Feb-10 18:00N 29°48' W 092°09'1 2.8
2018-Feb-10 17:30N 29°47' W 092°10'1 2.2
2018-Feb-10 17:00N 29°47' W 092°09'0 0.9
2018-Feb-10 16:30N 29°48' W 092°09'0 0.2
2018-Feb-10 16:00N 29°48' W 092°09'2 3.9
2018-Feb-10 15:30N 29°46' W 092°10'3 6.1
2018-Feb-10 15:00N 29°45' W 092°13'  

Dump ship's entire track history